createdAt,value
2018-04-14T00:00:08.339Z,7.60
2018-04-14T00:02:39.933Z,7.70
2018-04-14T00:05:09.723Z,7.70
2018-04-14T00:07:39.864Z,7.70
2018-04-14T00:10:10.273Z,7.70
2018-04-14T00:12:40.259Z,7.70
2018-04-14T00:15:09.720Z,7.60
2018-04-14T00:17:39.264Z,7.60
2018-04-14T00:20:11.875Z,7.60
2018-04-14T00:22:43.489Z,7.60
2018-04-14T00:25:12.603Z,7.50
2018-04-14T00:27:41.938Z,7.50
2018-04-14T00:30:11.080Z,7.40
2018-04-14T00:32:40.494Z,7.40
2018-04-14T00:35:09.845Z,7.40
2018-04-14T00:37:39.401Z,7.20
2018-04-14T00:40:10.462Z,7.20
2018-04-14T00:42:40.568Z,7.00
2018-04-14T00:45:09.634Z,7.10
2018-04-14T00:47:39.268Z,7.20
2018-04-14T00:50:08.764Z,7.20
2018-04-14T00:52:38.748Z,7.30
2018-04-14T00:55:09.176Z,7.30
2018-04-14T00:57:38.818Z,7.30
2018-04-14T01:00:08.220Z,7.40
2018-04-14T01:02:38.236Z,7.40
2018-04-14T01:05:09.206Z,7.00
2018-04-14T01:07:39.599Z,7.10
2018-04-14T01:10:09.362Z,7.10
2018-04-14T01:12:39.103Z,7.20
2018-04-14T01:15:08.527Z,7.40
2018-04-14T01:17:38.204Z,7.50
2018-04-14T01:20:07.837Z,7.50
2018-04-14T01:22:37.580Z,7.40
2018-04-14T01:25:07.470Z,7.40
2018-04-14T01:27:37.173Z,7.40
2018-04-14T01:30:06.560Z,7.50
2018-04-14T01:32:36.595Z,7.50
2018-04-14T01:35:05.987Z,7.60
2018-04-14T01:37:35.893Z,7.60
2018-04-14T01:40:05.931Z,7.60
2018-04-14T01:42:35.776Z,7.60
2018-04-14T01:45:05.840Z,7.50
2018-04-14T01:47:35.915Z,7.50
2018-04-14T01:50:05.479Z,7.60
2018-04-14T01:52:35.074Z,7.70
2018-04-14T01:55:04.814Z,7.80
2018-04-14T01:57:34.652Z,7.70
2018-04-14T02:00:04.575Z,7.70
2018-04-14T02:02:34.284Z,7.70
2018-04-14T02:05:03.832Z,7.80
2018-04-14T02:07:33.540Z,7.70
2018-04-14T02:10:03.351Z,7.70
2018-04-14T02:12:32.919Z,7.50
2018-04-14T02:15:02.040Z,7.50
2018-04-14T02:17:31.169Z,7.50
2018-04-14T02:20:00.794Z,7.50
2018-04-14T02:22:31.315Z,7.10
2018-04-14T02:25:01.769Z,7.10
2018-04-14T02:27:31.344Z,7.10
2018-04-14T02:30:00.826Z,7.10
2018-04-14T02:32:30.668Z,7.00
2018-04-14T02:35:00.099Z,7.00
2018-04-14T02:37:29.589Z,6.80
2018-04-14T02:39:59.697Z,7.00
2018-04-14T02:42:29.434Z,7.00
2018-04-14T02:44:59.030Z,7.10
2018-04-14T02:47:28.878Z,7.20
2018-04-14T02:49:58.239Z,7.20
2018-04-14T02:52:27.728Z,7.20
2018-04-14T02:54:57.333Z,7.20
2018-04-14T02:57:26.916Z,7.10
2018-04-14T02:59:57.132Z,7.00
2018-04-14T03:02:26.841Z,7.10
2018-04-14T03:04:57.730Z,6.90
2018-04-14T03:07:27.536Z,7.00
2018-04-14T03:09:57.444Z,7.00
2018-04-14T03:12:27.154Z,7.20
2018-04-14T03:14:58.029Z,7.30
2018-04-14T03:17:29.114Z,7.30
2018-04-14T03:19:58.952Z,7.30
2018-04-14T03:22:28.556Z,7.30
2018-04-14T03:24:57.931Z,7.30
2018-04-14T03:27:27.376Z,7.20
2018-04-14T03:29:57.657Z,7.20
2018-04-14T03:32:26.978Z,7.30
2018-04-14T03:34:56.670Z,7.30
2018-04-14T03:37:25.819Z,7.10
2018-04-14T03:39:54.995Z,7.20
2018-04-14T03:42:24.411Z,7.20
2018-04-14T03:44:53.966Z,7.30
2018-04-14T03:47:23.412Z,7.30
2018-04-14T03:49:53.249Z,7.30
2018-04-14T03:52:23.388Z,7.30
2018-04-14T03:54:52.710Z,7.30
2018-04-14T03:57:22.466Z,7.20
2018-04-14T03:59:52.784Z,7.20
2018-04-14T04:02:22.593Z,7.20
2018-04-14T04:04:52.369Z,7.30
2018-04-14T04:07:21.992Z,7.10
2018-04-14T04:09:51.303Z,7.00
2018-04-14T04:12:22.763Z,7.10
2018-04-14T04:14:52.073Z,7.10
2018-04-14T04:17:21.243Z,7.10
2018-04-14T04:19:56.049Z,7.10
2018-04-14T04:23:30.304Z,7.10
2018-04-14T04:26:00.110Z,7.00
2018-04-14T04:28:29.533Z,6.90
2018-04-14T04:30:58.721Z,6.80
2018-04-14T04:33:27.822Z,6.90
2018-04-14T04:35:56.926Z,7.00
2018-04-14T04:38:26.519Z,7.10
2018-04-14T04:40:56.220Z,7.00
2018-04-14T04:43:25.514Z,7.00
2018-04-14T04:45:55.433Z,7.00
2018-04-14T04:48:24.605Z,7.00
2018-04-14T04:50:53.801Z,6.90
2018-04-14T04:53:23.143Z,7.00
2018-04-14T04:55:52.268Z,7.00
2018-04-14T04:58:21.377Z,7.00
2018-04-14T05:00:51.457Z,7.10
2018-04-14T05:03:20.445Z,7.10
2018-04-14T05:05:49.543Z,7.30
2018-04-14T05:08:19.017Z,7.50
2018-04-14T05:10:48.289Z,7.70
2018-04-14T05:13:17.346Z,7.90
2018-04-14T05:15:46.582Z,8.10
2018-04-14T05:18:15.764Z,8.20
2018-04-14T05:20:44.735Z,8.30
2018-04-14T05:23:14.838Z,8.40
2018-04-14T05:25:43.990Z,8.40
2018-04-14T05:28:14.176Z,9.00
2018-04-14T05:30:44.678Z,9.00
2018-04-14T05:33:13.856Z,9.70
2018-04-14T05:35:42.867Z,10.50
2018-04-14T05:38:12.659Z,10.90
2018-04-14T05:40:42.586Z,11.00
2018-04-14T05:43:11.723Z,11.10
2018-04-14T05:45:41.236Z,10.80
2018-04-14T05:48:10.460Z,10.90
2018-04-14T05:50:40.477Z,11.30
2018-04-14T05:53:10.567Z,10.70
2018-04-14T05:55:39.528Z,10.70
2018-04-14T05:58:08.506Z,11.00
2018-04-14T06:00:38.220Z,10.90
2018-04-14T06:03:13.176Z,11.20
2018-04-14T06:05:43.915Z,11.30
2018-04-14T06:08:13.710Z,11.80
2018-04-14T06:10:43.323Z,11.80
2018-04-14T06:13:15.211Z,13.70
2018-04-14T06:15:44.808Z,13.70
2018-04-14T06:18:14.564Z,14.20
2018-04-14T06:20:44.901Z,14.50
2018-04-14T06:23:16.475Z,14.90
2018-04-14T06:25:45.742Z,14.90
2018-04-14T06:28:16.209Z,16.00
2018-04-14T06:30:45.588Z,15.90
2018-04-14T06:33:15.362Z,15.30
2018-04-14T06:35:46.480Z,16.70
2018-04-14T06:38:15.885Z,16.60
2018-04-14T06:40:45.121Z,16.70
2018-04-14T06:43:15.406Z,17.90
2018-04-14T06:45:44.715Z,17.90
2018-04-14T06:48:14.006Z,18.50
2018-04-14T06:50:43.569Z,19.60
2018-04-14T06:53:12.637Z,18.50
2018-04-14T06:55:41.649Z,19.90
2018-04-14T06:58:11.221Z,20.10
2018-04-14T07:00:40.605Z,21.30
2018-04-14T07:03:09.652Z,21.30
2018-04-14T07:05:42.789Z,21.60
2018-04-14T07:08:13.024Z,20.70
2018-04-14T07:10:42.263Z,20.70
2018-04-14T07:13:11.944Z,20.80
2018-04-14T07:15:40.975Z,21.60
2018-04-14T07:18:10.031Z,21.30
2018-04-14T07:20:39.517Z,21.20
2018-04-14T07:23:08.552Z,21.30
2018-04-14T07:25:38.594Z,22.00
2018-04-14T07:28:09.073Z,20.70
2018-04-14T07:30:38.251Z,20.30
2018-04-14T07:33:08.101Z,20.00
2018-04-14T07:35:41.770Z,18.90
2018-04-14T07:38:15.709Z,20.40
2018-04-14T07:40:45.041Z,21.40
2018-04-14T07:43:18.300Z,20.60
2018-04-14T07:49:03.262Z,21.00
2018-04-14T07:51:32.419Z,21.70
2018-04-14T07:54:02.186Z,22.10
2018-04-14T07:56:32.457Z,22.10
2018-04-14T07:59:05.895Z,21.50
2018-04-14T08:01:35.409Z,21.60
2018-04-14T08:04:08.264Z,20.90
2018-04-14T08:06:50.328Z,20.00
2018-04-14T08:09:34.450Z,20.00
2018-04-14T08:15:17.748Z,20.30
2018-04-14T08:18:06.932Z,22.00
2018-04-14T08:20:41.147Z,21.90
2018-04-14T08:30:20.876Z,24.50
2018-04-14T08:36:20.781Z,25.30
2018-04-14T08:38:56.247Z,24.60
2018-04-14T08:41:26.555Z,25.00
2018-04-14T08:43:57.979Z,24.00
2018-04-14T08:46:32.628Z,23.90
2018-04-14T08:49:04.948Z,24.00
2018-04-14T08:51:36.866Z,24.10
2018-04-14T08:54:13.434Z,23.10
2018-04-14T08:56:47.254Z,23.10
2018-04-14T08:59:26.786Z,23.90
2018-04-14T09:01:58.273Z,23.70
2018-04-14T09:04:29.343Z,23.70
2018-04-14T09:06:59.161Z,24.70
2018-04-14T09:09:32.830Z,27.00
2018-04-14T09:15:59.567Z,26.90
2018-04-14T09:18:53.011Z,29.30
2018-04-14T09:21:28.719Z,25.80
2018-04-14T09:24:04.641Z,23.50
2018-04-14T09:26:39.453Z,22.50
2018-04-14T09:29:32.402Z,19.40
2018-04-14T09:32:04.212Z,19.40
2018-04-14T09:34:36.328Z,20.50
2018-04-14T09:37:21.528Z,21.50
2018-04-14T09:39:54.365Z,22.10
2018-04-14T09:43:09.074Z,20.60
2018-04-14T09:45:40.522Z,20.50
2018-04-14T09:48:22.507Z,20.70
2018-04-14T09:50:58.412Z,20.90
2018-04-14T09:53:29.476Z,20.10
2018-04-14T09:56:02.117Z,20.10
2018-04-14T09:58:31.521Z,20.70
2018-04-14T10:01:16.242Z,20.60
2018-04-14T10:03:51.169Z,20.50
2018-04-14T10:06:22.827Z,20.50
2018-04-14T10:08:52.959Z,20.90
2018-04-14T10:11:29.495Z,20.20
2018-04-14T10:18:19.651Z,20.30
2018-04-14T10:20:52.474Z,20.10
2018-04-14T10:23:23.479Z,19.00
2018-04-14T10:25:53.986Z,18.90
2018-04-14T10:28:25.228Z,19.50
2018-04-14T10:30:57.555Z,19.70
2018-04-14T10:33:27.078Z,19.60
2018-04-14T10:35:57.848Z,19.80
2018-04-14T10:38:55.551Z,20.10
2018-04-14T10:41:26.508Z,20.20
2018-04-14T10:43:56.071Z,20.20
2018-04-14T10:46:25.289Z,21.10
2018-04-14T10:52:56.454Z,19.10
2018-04-14T10:55:30.855Z,19.10
2018-04-14T10:58:00.779Z,20.60
2018-04-14T11:00:30.254Z,20.50
2018-04-14T11:03:01.846Z,20.90
2018-04-14T11:05:34.183Z,20.20
2018-04-14T11:08:04.722Z,20.20
2018-04-14T11:10:46.690Z,21.10
2018-04-14T11:13:18.952Z,21.10
2018-04-14T11:15:49.192Z,21.70
2018-04-14T11:18:20.953Z,20.60
2018-04-14T11:21:14.986Z,20.40
2018-04-14T11:23:51.172Z,20.30
2018-04-14T11:26:23.719Z,20.80
2018-04-14T11:32:29.075Z,20.90
2018-04-14T11:35:07.996Z,19.90
2018-04-14T11:37:41.665Z,21.30
2018-04-14T11:43:36.652Z,21.50
2018-04-14T11:46:12.863Z,20.40
2018-04-14T11:48:48.952Z,21.20
2018-04-14T11:51:20.642Z,21.60
2018-04-14T11:53:53.671Z,21.70
2018-04-14T11:56:38.935Z,20.10
2018-04-14T11:59:09.314Z,20.30
2018-04-14T12:04:38.563Z,21.40
2018-04-14T12:07:34.006Z,21.40
2018-04-14T12:10:39.602Z,20.70
2018-04-14T12:13:08.845Z,21.20
2018-04-14T12:15:41.197Z,20.30
2018-04-14T12:18:11.969Z,20.10
2018-04-14T12:20:46.462Z,19.90
2018-04-14T12:27:20.432Z,20.40
2018-04-14T12:30:38.755Z,20.40
2018-04-14T12:33:50.441Z,20.50
2018-04-14T12:36:44.170Z,20.50
2018-04-14T12:39:15.648Z,21.00
2018-04-14T12:41:57.432Z,21.20
2018-04-14T12:44:52.467Z,20.80
2018-04-14T12:47:29.031Z,20.60
2018-04-14T12:50:13.326Z,20.10
2018-04-14T12:52:53.523Z,19.90
2018-04-14T12:55:24.888Z,19.90
2018-04-14T13:01:59.699Z,20.90
2018-04-14T13:04:29.724Z,20.90
2018-04-14T13:07:06.008Z,20.80
2018-04-14T13:09:37.216Z,20.90
2018-04-14T13:12:09.032Z,20.30
2018-04-14T13:14:44.766Z,20.30
2018-04-14T13:17:15.768Z,20.30
2018-04-14T13:19:59.399Z,20.30
2018-04-14T13:22:38.275Z,20.50
2018-04-14T13:25:14.436Z,20.70
2018-04-14T13:28:00.382Z,20.80
2018-04-14T13:30:31.536Z,20.70
2018-04-14T13:33:14.633Z,20.70
2018-04-14T13:36:02.179Z,20.80
2018-04-14T13:38:35.784Z,20.20
2018-04-14T13:41:10.447Z,20.20
2018-04-14T13:43:48.952Z,20.50
2018-04-14T13:46:19.601Z,20.50
2018-04-14T13:48:50.533Z,20.70
2018-04-14T13:51:22.098Z,20.70
2018-04-14T13:54:00.076Z,20.60
2018-04-14T13:56:44.364Z,20.70
2018-04-14T13:59:13.836Z,20.50
2018-04-14T14:01:44.806Z,20.30
2018-04-14T14:04:17.829Z,20.40
2018-04-14T14:06:48.085Z,20.60
2018-04-14T14:12:33.603Z,20.40
2018-04-14T14:15:40.204Z,20.40
2018-04-14T14:18:13.733Z,20.40
2018-04-14T14:20:43.719Z,20.40
2018-04-14T14:23:16.317Z,20.40
2018-04-14T14:25:46.322Z,20.50
2018-04-14T14:28:45.735Z,20.70
2018-04-14T14:31:16.166Z,20.60
2018-04-14T14:33:51.905Z,20.60
2018-04-14T14:36:22.294Z,20.30
2018-04-14T14:38:52.775Z,20.30
2018-04-14T14:41:25.383Z,20.50
2018-04-14T14:44:10.026Z,20.40
2018-04-14T14:46:41.607Z,20.50
2018-04-14T14:49:12.758Z,20.40
2018-04-14T14:51:42.866Z,20.40
2018-04-14T14:54:27.010Z,20.20
2018-04-14T14:57:00.205Z,20.20
2018-04-14T14:59:31.233Z,20.20
2018-04-14T15:04:52.681Z,20.10
2018-04-14T15:07:27.634Z,20.20
2018-04-14T15:09:57.912Z,20.00
2018-04-14T15:12:40.342Z,20.10
2018-04-14T15:15:12.869Z,20.30
2018-04-14T15:18:08.229Z,20.20
2018-04-14T15:21:06.831Z,20.00
2018-04-14T15:23:41.047Z,20.20
2018-04-14T15:26:14.054Z,20.20
2018-04-14T15:28:46.083Z,20.40
2018-04-14T15:31:24.495Z,20.10
2018-04-14T15:33:58.603Z,19.90
2018-04-14T15:36:30.433Z,20.00
2018-04-14T15:39:04.526Z,20.00
2018-04-14T15:41:37.043Z,20.00
2018-04-14T15:44:10.033Z,20.10
2018-04-14T15:46:40.362Z,20.00
2018-04-14T15:49:10.036Z,19.90
2018-04-14T15:51:44.107Z,20.00
2018-04-14T15:54:16.731Z,19.90
2018-04-14T15:56:48.910Z,19.90
2018-04-14T15:59:19.427Z,19.80
2018-04-14T16:01:49.732Z,19.70
2018-04-14T16:04:19.798Z,19.70
2018-04-14T16:06:49.501Z,19.90
2018-04-14T16:09:20.677Z,19.90
2018-04-14T16:11:50.205Z,19.80
2018-04-14T16:14:20.969Z,19.70
2018-04-14T16:16:52.306Z,19.90
2018-04-14T16:19:25.076Z,19.80
2018-04-14T16:22:02.876Z,19.80
2018-04-14T16:27:18.754Z,19.90
2018-04-14T16:29:50.316Z,19.60
2018-04-14T16:32:24.862Z,19.60
2018-04-14T16:35:08.630Z,19.60
2018-04-14T16:37:49.332Z,19.60
2018-04-14T16:40:19.246Z,19.40
2018-04-14T16:42:53.985Z,19.50
2018-04-14T16:51:24.281Z,19.30
2018-04-14T16:53:54.029Z,19.30
2018-04-14T16:56:24.142Z,19.20
2018-04-14T16:58:55.931Z,19.30
2018-04-14T17:01:31.880Z,19.20
2018-04-14T17:04:02.380Z,19.20
2018-04-14T17:06:35.783Z,19.10
2018-04-14T17:12:35.919Z,18.90
2018-04-14T17:15:06.108Z,18.90
2018-04-14T17:17:42.224Z,18.90
2018-04-14T17:20:12.518Z,18.80
2018-04-14T17:22:46.146Z,18.80
2018-04-14T17:25:26.671Z,18.70
2018-04-14T17:27:58.806Z,18.50
2018-04-14T17:30:29.981Z,18.50
2018-04-14T17:33:13.566Z,18.40
2018-04-14T17:36:14.152Z,18.40
2018-04-14T17:39:12.364Z,18.30
2018-04-14T17:41:42.209Z,18.30
2018-04-14T17:44:12.028Z,18.20
2018-04-14T17:46:41.720Z,18.10
2018-04-14T17:49:13.569Z,17.90
2018-04-14T17:51:47.993Z,17.70
2018-04-14T17:54:18.460Z,17.70
2018-04-14T17:56:47.773Z,17.70
2018-04-14T17:59:17.146Z,17.60
2018-04-14T18:01:46.928Z,17.50
2018-04-14T18:04:18.049Z,17.40
2018-04-14T18:06:49.156Z,17.30
2018-04-14T18:09:25.221Z,17.20
2018-04-14T18:11:57.395Z,17.00
2018-04-14T18:14:27.648Z,16.90
2018-04-14T18:16:58.857Z,16.90
2018-04-14T18:19:35.965Z,16.70
2018-04-14T18:22:06.885Z,16.50
2018-04-14T18:24:37.509Z,16.30
2018-04-14T18:27:07.020Z,16.20
2018-04-14T18:29:37.241Z,16.10
2018-04-14T18:32:07.116Z,16.10
2018-04-14T18:34:39.468Z,16.00
2018-04-14T18:37:08.998Z,16.00
2018-04-14T18:39:39.027Z,15.70
2018-04-14T18:42:09.163Z,15.60
2018-04-14T18:44:38.442Z,15.60
2018-04-14T18:47:08.694Z,15.50
2018-04-14T18:49:38.413Z,15.60
2018-04-14T18:52:08.059Z,15.50
2018-04-14T18:54:37.241Z,15.40
2018-04-14T18:57:07.077Z,15.20
2018-04-14T18:59:36.737Z,15.10
2018-04-14T19:02:06.301Z,14.90
2018-04-14T19:04:36.065Z,14.90
2018-04-14T19:07:05.490Z,14.90
2018-04-14T19:09:35.638Z,14.90
2018-04-14T19:12:05.537Z,15.00
2018-04-14T19:14:35.038Z,14.70
2018-04-14T19:17:04.502Z,14.70
2018-04-14T19:19:34.264Z,14.70
2018-04-14T19:22:07.025Z,14.60
2018-04-14T19:24:40.192Z,14.70
2018-04-14T19:27:09.487Z,14.70
2018-04-14T19:29:38.853Z,14.60
2018-04-14T19:32:08.532Z,14.50
2018-04-14T19:34:39.533Z,14.50
2018-04-14T19:37:09.034Z,14.50
2018-04-14T19:39:38.681Z,14.50
2018-04-14T19:42:08.752Z,14.20
2018-04-14T19:44:39.482Z,14.10
2018-04-14T19:47:08.983Z,14.20
2018-04-14T19:49:38.816Z,14.30
2018-04-14T19:52:08.866Z,14.00
2018-04-14T19:54:38.914Z,13.80
2018-04-14T19:57:10.268Z,13.80
2018-04-14T19:59:42.858Z,13.70
2018-04-14T20:02:14.753Z,13.80
2018-04-14T20:04:45.767Z,13.60
2018-04-14T20:07:15.069Z,13.60
2018-04-14T20:09:44.627Z,13.50
2018-04-14T20:12:23.997Z,13.50
2018-04-14T20:14:57.397Z,13.50
2018-04-14T20:17:28.308Z,13.60
2018-04-14T20:19:58.371Z,13.60
2018-04-14T20:22:28.681Z,13.70
2018-04-14T20:25:02.098Z,13.70
2018-04-14T20:27:32.911Z,13.40
2018-04-14T20:30:02.873Z,13.40
2018-04-14T20:32:32.956Z,13.20
2018-04-14T20:35:03.671Z,12.90
2018-04-14T20:37:33.881Z,12.90
2018-04-14T20:40:03.706Z,12.90
2018-04-14T20:42:34.378Z,12.90
2018-04-14T20:45:04.363Z,12.80
2018-04-14T20:47:34.489Z,12.50
2018-04-14T20:50:04.718Z,12.40
2018-04-14T20:52:37.858Z,12.50
2018-04-14T20:55:07.590Z,12.50
2018-04-14T20:57:37.331Z,12.40
2018-04-14T21:00:06.986Z,12.30
2018-04-14T21:02:36.927Z,12.50
2018-04-14T21:05:06.560Z,12.60
2018-04-14T21:07:35.792Z,12.60
2018-04-14T21:10:05.615Z,12.70
2018-04-14T21:12:35.982Z,12.80
2018-04-14T21:15:05.202Z,12.90
2018-04-14T21:17:36.929Z,12.90
2018-04-14T21:20:06.632Z,12.80
2018-04-14T21:22:38.550Z,12.90
2018-04-14T21:25:11.396Z,12.80
2018-04-14T21:27:43.767Z,12.80
2018-04-14T21:30:14.251Z,12.70
2018-04-14T21:32:47.936Z,12.70
2018-04-14T21:35:19.706Z,12.70
2018-04-14T21:37:52.206Z,12.70
2018-04-14T21:40:24.724Z,11.90
2018-04-14T21:42:58.556Z,11.90
2018-04-14T21:45:31.345Z,11.80
2018-04-14T21:48:01.795Z,11.90
2018-04-14T21:50:31.051Z,11.80
2018-04-14T21:53:01.752Z,11.80
2018-04-14T21:55:32.427Z,11.90
2018-04-14T21:58:02.225Z,12.00
2018-04-14T22:00:33.722Z,12.00
2018-04-14T22:03:04.429Z,12.00
2018-04-14T22:05:34.861Z,12.00
2018-04-14T22:08:04.671Z,12.00
2018-04-14T22:10:37.809Z,12.00
2018-04-14T22:13:10.618Z,12.00
2018-04-14T22:15:41.152Z,12.00
2018-04-14T22:18:11.927Z,12.00
2018-04-14T22:20:42.522Z,12.00
2018-04-14T22:23:12.285Z,11.90
2018-04-14T22:25:43.483Z,11.80
2018-04-14T22:28:14.032Z,11.70
2018-04-14T22:30:44.892Z,11.80
2018-04-14T22:33:14.547Z,11.70
2018-04-14T22:35:43.728Z,11.80
2018-04-14T22:38:13.037Z,11.70
2018-04-14T22:40:43.749Z,11.60
2018-04-14T22:43:13.711Z,11.30
2018-04-14T22:45:43.638Z,11.30
2018-04-14T22:48:13.315Z,11.30
2018-04-14T22:50:43.071Z,11.20
2018-04-14T22:53:14.426Z,11.00
2018-04-14T22:55:44.545Z,11.00
2018-04-14T22:58:14.457Z,11.00
2018-04-14T23:00:44.058Z,10.80
2018-04-14T23:03:13.742Z,10.80
2018-04-14T23:05:43.064Z,10.70
2018-04-14T23:08:12.734Z,10.50
2018-04-14T23:10:42.452Z,10.50
2018-04-14T23:13:11.781Z,10.50
2018-04-14T23:15:41.200Z,10.60
2018-04-14T23:18:10.745Z,10.90
2018-04-14T23:20:40.142Z,11.10
2018-04-14T23:23:09.799Z,11.10
2018-04-14T23:25:39.523Z,11.10
2018-04-14T23:28:08.964Z,11.10
2018-04-14T23:30:38.935Z,11.10
2018-04-14T23:33:08.488Z,11.00
2018-04-14T23:35:37.853Z,11.00
2018-04-14T23:38:07.173Z,11.00
2018-04-14T23:40:50.018Z,11.00
2018-04-14T23:43:35.705Z,11.00
2018-04-14T23:46:05.826Z,11.00
2018-04-14T23:48:38.000Z,10.80
2018-04-14T23:51:09.672Z,10.60
2018-04-14T23:53:39.494Z,10.70
2018-04-14T23:56:09.237Z,10.70
2018-04-14T23:58:38.548Z,10.80
